This is the latest recevied weather packets stored in our database for station/object KF0RZX-13. If no packets are shown the sender has not sent any weather packets the latest 10 day(s).
| Time | Temp. | Humidity | Pressure | Rain* | Wind** | Luminosity | Snow |
|---|---|---|---|---|---|---|---|
| 1787422921 | 27.78° C | 51% | 1025.7 hPa | 0 mm | - | - | - |
| 1787421116 | 27.22° C | 54% | 1026.4 hPa | 0 mm | - | - | - |
| 1787419311 | 27.22° C | 54% | 1026.4 hPa | 0 mm | - | - | - |
| 1787417507 | 26.11° C | 58% | 1026.1 hPa | 0 mm | - | - | - |
| 1787415701 | 26.11° C | 58% | 1026.1 hPa | 0 mm | - | - | - |
| 1787413896 | 25° C | 61% | 1025.7 hPa | 0 mm | - | - | - |
| 1787412093 | 25° C | 57% | 1026.1 hPa | 0 mm | - | - | - |
| 1787410290 | 23.89° C | 57% | 1026.1 hPa | 0 mm | - | - | - |
| 1787408481 | 22.78° C | 61% | 1026.1 hPa | 0 mm | - | - | - |
| 1787406677 | 21.11° C | 73% | 1025.7 hPa | 0 mm | - | - | - |
| 1787404871 | 20° C | 78% | 1025.7 hPa | 0 mm | - | - | - |
| 1787403067 | 17.22° C | 88% | 1025.4 hPa | 0 mm | - | - | - |
| 1787401261 | 17.22° C | 83% | 1025.1 hPa | 0 mm | - | - | - |
| 1787399456 | 17.22° C | 83% | 1025.1 hPa | 0 mm | - | - | - |
| 1787397651 | 17.78° C | 77% | 1025.1 hPa | 0 mm | - | - | - |
| 1787395846 | 17.78° C | 77% | 1024.7 hPa | 0 mm | - | - | - |
| 1787394041 | 20° C | 68% | 1024.7 hPa | 0 mm | - | - | - |
| 1787392239 | 21.11° C | 64% | 1024.4 hPa | 0 mm | - | - | - |
| 1787390434 | 21.11° C | 69% | 1024.4 hPa | 0 mm | - | - | - |
| 1787388611 | 21.11° C | 73% | 1024 hPa | 0 mm | - | - | - |
| 1787386809 | 21.11° C | 78% | 1024 hPa | 0 mm | - | - | - |
| 1787385001 | 21.11° C | 83% | 1024.4 hPa | 0 mm | - | - | - |
| 1787383196 | 21.11° C | 83% | 1024.4 hPa | 0 mm | - | - | - |
| 1787381391 | 21.11° C | 83% | 1024.4 hPa | 0 mm | - | - | - |
| 1787379586 | 21.11° C | 78% | 1024.4 hPa | 0 mm | - | - | - |
* Rain latest hour (hover to see other rain measurements)
** Current wind speed in m/s (hover to see current wind gust speed)